Time;durP1;ratioP1;P1;durP2;ratioP2;P2;SDS_P1;SDS_P2;PMS_P1;PMS_P2;Temp;Humidity;BMP_temperature;BMP_pressure;BME280_temperature;BME280_humidity;BME280_pressure;Samples;Min_cycle;Max_cycle;Signal;HPM_P1;HPM_P2
2022/11/27 07:10:46;;;;;;;11.53;5.60;;;;;;;-3.60;100.00;100087.31;5117808;27;20363;-78
2022/11/27 07:13:13;;;;;;;13.00;6.83;;;;;;;-3.60;100.00;100058.06;5101669;28;20044;-78
2022/11/27 07:15:39;;;;;;;14.00;7.60;;;;;;;-3.47;100.00;100066.34;5104329;28;20072;-77
2022/11/27 07:18:06;;;;;;;16.47;7.23;;;;;;;-3.40;100.00;100068.63;5106312;28;20047;-77
2022/11/27 07:20:32;;;;;;;13.33;7.47;;;;;;;-3.25;100.00;100077.66;5099039;28;20044;-77
2022/11/27 07:22:59;;;;;;;13.23;7.27;;;;;;;-3.36;100.00;100056.03;5095114;28;20090;-77
2022/11/27 07:25:26;;;;;;;16.03;7.93;;;;;;;-3.19;100.00;100057.88;5090194;28;20507;-77
2022/11/27 07:27:55;;;;;;;15.27;7.53;;;;;;;-3.24;100.00;100052.78;5096542;28;20051;-77
2022/11/27 07:30:21;;;;;;;15.55;6.13;;;;;;;-3.11;100.00;100060.16;5100041;28;20555;-77
2022/11/27 07:32:48;;;;;;;9.02;5.82;;;;;;;-2.95;100.00;100058.47;5103311;28;20048;-77
2022/11/27 07:35:15;;;;;;;10.53;6.47;;;;;;;-2.93;100.00;100043.28;5109524;28;20044;-77
2022/11/27 07:37:41;;;;;;;10.13;6.32;;;;;;;-3.11;100.00;100005.16;5095214;28;20130;-77
2022/11/27 07:40:09;;;;;;;8.75;5.20;;;;;;;-3.08;100.00;100018.28;5108952;28;20471;-78
2022/11/27 07:42:35;;;;;;;10.75;5.80;;;;;;;-3.06;100.00;99987.16;5107464;28;20478;-77
2022/11/27 07:45:04;;;;;;;9.70;5.95;;;;;;;-2.77;100.00;100005.22;5100074;28;20044;-78
2022/11/27 07:47:30;;;;;;;9.15;6.45;;;;;;;-2.77;100.00;99987.47;5104059;28;20493;-77
2022/11/27 07:49:59;;;;;;;11.05;6.07;;;;;;;-2.64;100.00;99992.16;5094913;28;20131;-77
2022/11/27 07:52:25;;;;;;;13.05;6.15;;;;;;;-2.47;100.00;99989.44;5082703;28;20062;-78
2022/11/27 07:54:52;;;;;;;15.82;6.88;;;;;;;-2.47;100.00;99985.91;5086151;28;20045;-77
2022/11/27 07:57:21;;;;;;;16.23;7.47;;;;;;;-2.47;100.00;99988.59;5091111;28;20058;-78
2022/11/27 07:59:48;;;;;;;30.53;11.63;;;;;;;-2.42;100.00;99990.06;5083442;28;20044;-77
2022/11/27 08:02:16;;;;;;;24.70;13.13;;;;;;;-2.38;100.00;100002.28;5089835;28;20301;-77
2022/11/27 08:04:42;;;;;;;24.38;12.07;;;;;;;-2.40;100.00;99982.84;5097079;28;20086;-77
2022/11/27 08:07:09;;;;;;;22.70;11.77;;;;;;;-2.32;100.00;99977.97;5108156;28;20056;-77
2022/11/27 08:09:36;;;;;;;20.40;11.15;;;;;;;-2.22;100.00;99985.47;5108252;28;20070;-77
2022/11/27 08:12:04;;;;;;;21.35;11.20;;;;;;;-2.25;100.00;99996.28;5107626;28;20126;-77
2022/11/27 08:14:30;;;;;;;21.20;11.90;;;;;;;-2.29;100.00;99998.25;5100383;28;20052;-77
2022/11/27 08:16:57;;;;;;;29.60;11.63;;;;;;;-2.08;100.00;100008.69;5097508;28;20048;-77
2022/11/27 08:19:27;;;;;;;25.13;13.10;;;;;;;-2.18;100.00;99982.56;5098905;28;20107;-77
2022/11/27 08:21:55;;;;;;;29.05;13.07;;;;;;;-2.29;100.00;99963.63;5084268;28;20059;-77
2022/11/27 08:24:21;;;;;;;24.33;13.27;;;;;;;-2.21;100.00;99976.53;5087607;28;20070;-77
2022/11/27 08:26:48;;;;;;;25.42;13.30;;;;;;;-2.30;100.00;99967.25;5091430;28;20075;-77
2022/11/27 08:29:15;;;;;;;25.85;13.15;;;;;;;-2.10;100.00;99987.47;5084417;28;20481;-77
2022/11/27 08:31:41;;;;;;;22.48;12.40;;;;;;;-2.04;100.00;99980.94;5077473;28;20063;-79
2022/11/27 08:34:08;;;;;;;23.65;13.27;;;;;;;-2.07;100.00;99973.13;5093506;28;20098;-79
2022/11/27 08:36:36;;;;;;;21.65;12.15;;;;;;;-2.00;100.00;99972.69;5091333;28;20491;-79
2022/11/27 08:39:03;;;;;;;25.20;13.63;;;;;;;-1.93;100.00;99965.19;5093101;28;20119;-78
2022/11/27 08:41:29;;;;;;;15.98;10.27;;;;;;;-1.93;100.00;99965.19;5088212;28;20053;-78
2022/11/27 08:44:17;;;;;;;23.50;10.70;;;;;;;-1.77;100.00;99970.53;5079368;28;20509;-79
2022/11/27 08:46:44;;;;;;;23.83;10.75;;;;;;;-1.84;100.00;99951.34;5085912;28;20068;-78
2022/11/27 08:49:11;;;;;;;19.90;10.05;;;;;;;-1.55;100.00;99970.19;5089757;28;20058;-76
2022/11/27 08:51:39;;;;;;;21.33;12.10;;;;;;;-1.57;100.00;99948.06;5087676;28;20066;-78
2022/11/27 08:54:06;;;;;;;25.40;14.63;;;;;;;-1.41;100.00;99952.53;5088770;28;20135;-78
2022/11/27 08:56:33;;;;;;;34.28;15.15;;;;;;;-1.27;100.00;99960.56;5072309;28;20124;-78
2022/11/27 08:58:59;;;;;;;31.52;15.57;;;;;;;-1.28;100.00;99926.81;5080862;28;20129;-78
2022/11/27 09:01:28;;;;;;;28.83;14.23;;;;;;;-1.12;100.00;99943.66;5075572;28;20055;-78
2022/11/27 09:03:55;;;;;;;29.15;13.48;;;;;;;-0.96;100.00;99943.59;5088965;28;20052;-78
2022/11/27 09:06:23;;;;;;;32.90;14.75;;;;;;;-0.87;100.00;99938.63;5083116;28;20040;-78
2022/11/27 09:08:51;;;;;;;39.75;13.75;;;;;;;-0.79;100.00;99921.22;5079708;28;20052;-78
2022/11/27 09:11:20;;;;;;;31.45;11.95;;;;;;;-0.63;100.00;99934.50;5091644;28;20517;-78
2022/11/27 09:13:47;;;;;;;21.05;11.63;;;;;;;-0.45;100.00;99939.63;5090700;28;20059;-78
2022/11/27 09:16:16;;;;;;;24.85;12.50;;;;;;;-0.23;100.00;99961.38;5091444;28;20070;-78
2022/11/27 09:18:45;;;;;;;23.85;13.30;;;;;;;-0.11;100.00;99957.06;5088651;28;20040;-78
2022/11/27 09:21:13;;;;;;;22.80;12.13;;;;;;;-0.13;100.00;99940.28;5080427;28;20052;-79
2022/11/27 09:23:40;;;;;;;18.42;9.55;;;;;;;0.08;100.00;99953.25;5072419;28;20133;-79
2022/11/27 09:26:24;;;;;;;14.32;8.57;;;;;;;0.21;100.00;99948.81;5075473;28;20169;-82
2022/11/27 09:28:51;;;;;;;16.13;8.65;;;;;;;0.17;100.00;99925.91;5076533;28;20445;-76
2022/11/27 09:31:19;;;;;;;15.75;8.20;;;;;;;0.41;100.00;99952.88;5071495;28;20048;-77
2022/11/27 09:33:46;;;;;;;18.20;10.00;;;;;;;0.43;100.00;99926.84;5072598;28;20131;-78
2022/11/27 09:36:14;;;;;;;17.23;9.32;;;;;;;0.46;100.00;99889.19;5074203;28;20066;-78
2022/11/27 09:38:41;;;;;;;22.98;11.88;;;;;;;0.67;100.00;99881.53;5074994;28;20142;-78
2022/11/27 09:41:23;;;;;;;25.10;12.73;;;;;;;0.78;100.00;99885.31;5076380;28;20487;-78
2022/11/27 09:43:55;;;;;;;24.30;11.63;;;;;;;1.02;100.00;99925.59;5070832;28;20052;-78
2022/11/27 09:46:31;;;;;;;24.17;12.18;;;;;;;1.04;100.00;99919.19;5074068;28;20440;-78
2022/11/27 09:49:00;;;;;;;29.23;12.43;;;;;;;1.21;100.00;99912.66;5081540;28;20537;-79
2022/11/27 09:51:32;;;;;;;28.77;12.30;;;;;;;1.26;100.00;99893.59;5076225;28;20044;-79
2022/11/27 09:54:05;;;;;;;22.35;9.70;;;;;;;1.44;100.00;99887.91;5090474;28;20130;-77
2022/11/27 09:56:35;;;;;;;11.90;7.32;;;;;;;1.70;100.00;99872.63;5084288;28;20326;-78
2022/11/27 09:59:12;;;;;;;18.50;9.23;;;;;;;1.94;100.00;99895.00;5076374;28;20110;-79
2022/11/27 10:01:39;;;;;;;16.35;8.05;;;;;;;2.03;100.00;99887.22;5073185;28;20426;-79
2022/11/27 10:04:05;;;;;;;15.77;8.30;;;;;;;2.14;100.00;99881.94;5083759;28;20052;-79
2022/11/27 10:06:40;;;;;;;26.30;11.38;;;;;;;2.18;100.00;99859.28;5076029;28;20056;-80
2022/11/27 10:09:15;;;;;;;18.27;8.98;;;;;;;2.29;100.00;99845.06;5078798;28;20066;-80
2022/11/27 10:11:51;;;;;;;19.70;8.57;;;;;;;2.60;100.00;99850.78;5070943;28;20048;-80
2022/11/27 10:14:36;;;;;;;16.13;8.27;;;;;;;2.68;100.00;99840.34;5077011;28;20471;-79
2022/11/27 10:17:10;;;;;;;15.63;8.52;;;;;;;2.67;100.00;99832.41;5077498;28;20048;-80
2022/11/27 10:19:48;;;;;;;14.13;7.40;;;;;;;2.78;100.00;99846.69;5077026;28;20071;-79
2022/11/27 10:22:21;;;;;;;15.63;6.63;;;;;;;2.75;100.00;99838.88;5069439;28;20054;-80
2022/11/27 10:24:59;;;;;;;14.10;7.25;;;;;;;2.74;100.00;99831.81;5083422;28;20086;-79
2022/11/27 10:27:33;;;;;;;14.20;6.95;;;;;;;2.77;100.00;99811.91;5072069;28;20044;-80
2022/11/27 10:30:03;;;;;;;9.82;5.32;;;;;;;2.97;100.00;99821.09;5075215;28;20071;-80
2022/11/27 10:32:33;;;;;;;9.73;4.68;;;;;;;3.16;100.00;99824.06;5082859;28;20388;-80
2022/11/27 10:35:04;;;;;;;11.10;5.07;;;;;;;3.26;100.00;99823.31;5078813;28;20186;-80
2022/11/27 10:37:38;;;;;;;11.35;4.78;;;;;;;3.48;100.00;99820.63;5078908;28;20052;-79
2022/11/27 10:40:17;;;;;;;8.85;5.32;;;;;;;3.59;100.00;99833.19;5074175;28;20043;-80
2022/11/27 10:42:49;;;;;;;9.30;5.53;;;;;;;3.67;100.00;99832.56;5077786;28;20063;-80
2022/11/27 10:45:22;;;;;;;9.55;5.85;;;;;;;3.67;100.00;99813.75;5070107;28;20041;-80
2022/11/27 10:47:48;;;;;;;9.38;5.38;;;;;;;3.71;100.00;99799.94;5082064;28;20062;-79
2022/11/27 10:50:18;;;;;;;12.05;6.40;;;;;;;3.79;100.00;99804.69;5082626;28;20054;-79
2022/11/27 10:52:50;;;;;;;13.57;6.87;;;;;;;3.93;100.00;99818.81;5080251;28;20048;-80
2022/11/27 10:55:21;;;;;;;12.00;7.18;;;;;;;4.03;100.00;99814.41;5081825;28;20050;-79
2022/11/27 10:58:03;;;;;;;10.68;6.45;;;;;;;4.00;100.00;99796.66;5080957;28;20048;-79
2022/11/27 11:00:30;;;;;;;10.43;5.20;;;;;;;4.09;100.00;99778.91;5080110;28;20052;-79
2022/11/27 11:03:01;;;;;;;5.75;3.75;;;;;;;4.30;100.00;99781.63;5069490;28;20506;-79
2022/11/27 11:05:29;;;;;;;7.18;3.58;;;;;;;4.39;100.00;99774.63;5077513;28;20059;-79
2022/11/27 11:07:59;;;;;;;6.07;3.40;;;;;;;4.52;100.00;99788.75;5070892;28;20404;-79
2022/11/27 11:10:35;;;;;;;8.75;4.22;;;;;;;4.72;100.00;99786.19;5078753;28;20063;-80
2022/11/27 11:13:16;;;;;;;9.57;4.43;;;;;;;4.67;100.00;99750.75;5081917;28;20264;-80
2022/11/27 11:15:49;;;;;;;7.35;4.18;;;;;;;4.79;100.00;99749.66;5083395;28;20048;-79
2022/11/27 11:18:17;;;;;;;5.75;3.35;;;;;;;5.02;100.00;99771.06;5077503;28;20040;-79
2022/11/27 11:20:47;;;;;;;6.65;3.40;;;;;;;4.99;100.00;99736.28;5078276;28;20560;-79
2022/11/27 11:23:21;;;;;;;6.80;3.33;;;;;;;5.34;100.00;99748.47;5072839;28;20414;-79
2022/11/27 11:25:50;;;;;;;5.93;3.03;;;;;;;5.47;100.00;99749.94;5079620;28;20050;-78
2022/11/27 11:28:19;;;;;;;5.75;2.72;;;;;;;5.38;100.00;99726.50;5085486;28;20408;-79
2022/11/27 11:30:57;;;;;;;6.25;3.75;;;;;;;5.32;100.00;99724.34;5069721;28;20044;-79
2022/11/27 11:33:25;;;;;;;4.95;3.03;;;;;;;5.28;100.00;99698.66;5069671;28;20484;-78
2022/11/27 11:35:54;;;;;;;7.63;2.85;;;;;;;5.34;100.00;99702.63;5077897;28;20051;-78
2022/11/27 11:38:28;;;;;;;4.15;2.05;;;;;;;5.56;100.00;99715.88;5076739;28;20581;-78
2022/11/27 11:41:01;;;;;;;6.00;2.55;;;;;;;5.74;100.00;99713.34;5076969;28;20056;-78
2022/11/27 11:43:30;;;;;;;4.53;1.73;;;;;;;5.73;100.00;99679.28;5067295;28;20053;-78
2022/11/27 11:46:15;;;;;;;6.35;2.45;;;;;;;5.91;100.00;99702.88;5077998;28;20055;-78
2022/11/27 11:48:53;;;;;;;2.88;2.13;;;;;;;5.96;100.00;99689.78;5070618;28;20247;-78
2022/11/27 11:51:27;;;;;;;3.83;1.67;;;;;;;6.11;100.00;99683.00;5067336;28;20045;-80
2022/11/27 11:54:07;;;;;;;2.30;1.48;;;;;;;6.00;100.00;99665.09;5075610;28;20128;-79
2022/11/27 11:56:37;;;;;;;2.75;1.50;;;;;;;6.27;97.79;99671.59;5078181;28;20052;-78
2022/11/27 11:59:12;;;;;;;1.52;1.20;;;;;;;6.30;95.81;99659.66;5073026;28;20044;-79
2022/11/27 12:01:55;;;;;;;3.90;1.50;;;;;;;6.56;95.74;99670.69;5077765;28;20051;-80
2022/11/27 12:04:40;;;;;;;3.22;1.60;;;;;;;6.50;95.57;99661.34;5073807;28;20396;-80
2022/11/27 12:07:19;;;;;;;3.47;1.05;;;;;;;6.40;97.11;99643.44;5081805;28;20509;-79
2022/11/27 12:09:56;;;;;;;2.20;1.30;;;;;;;6.62;93.35;99680.91;5079244;28;20047;-79
2022/11/27 12:12:35;;;;;;;1.95;1.15;;;;;;;6.68;94.17;99671.34;5082204;28;20124;-79
2022/11/27 12:15:07;;;;;;;3.20;1.42;;;;;;;6.53;93.88;99643.97;5075507;28;20403;-79
2022/11/27 12:17:56;;;;;;;4.05;1.30;;;;;;;6.68;92.30;99656.00;5080331;28;20143;-80
2022/11/27 12:20:32;;;;;;;1.73;1.20;;;;;;;6.50;92.75;99641.56;5082223;28;20044;-79
2022/11/27 12:23:24;;;;;;;2.25;1.02;;;;;;;6.45;93.23;99627.66;5070285;28;20056;-79
2022/11/27 12:26:00;;;;;;;3.15;1.58;;;;;;;6.49;91.67;99643.41;5085951;28;20048;-80
2022/11/27 12:28:41;;;;;;;1.80;1.20;;;;;;;6.46;89.66;99634.72;5076407;28;20487;-79
2022/11/27 12:31:21;;;;;;;5.82;1.42;;;;;;;6.49;91.97;99642.56;5083694;28;20048;-79
2022/11/27 12:33:59;;;;;;;3.70;1.30;;;;;;;6.50;91.66;99642.44;5082080;28;20385;-79
2022/11/27 12:36:39;;;;;;;2.58;1.38;;;;;;;6.49;92.19;99612.88;5079764;28;20086;-79
2022/11/27 12:39:24;;;;;;;3.42;1.83;;;;;;;6.66;90.89;99597.72;5072231;28;20068;-79
2022/11/27 12:42:08;;;;;;;4.65;1.60;;;;;;;6.77;89.26;99591.25;5082358;28;20048;-79
2022/11/27 12:44:50;;;;;;;4.35;1.52;;;;;;;7.01;86.29;99599.66;5076536;28;20113;-79
2022/11/27 12:47:22;;;;;;;1.83;1.10;;;;;;;6.99;88.07;99577.34;5083817;28;20115;-79
2022/11/27 12:49:56;;;;;;;3.72;1.80;;;;;;;7.04;87.70;99574.16;5074630;28;20048;-79
2022/11/27 12:52:25;;;;;;;3.75;1.52;;;;;;;7.25;86.96;99590.94;5077893;28;20502;-79
2022/11/27 12:54:57;;;;;;;3.63;1.30;;;;;;;7.23;87.01;99592.97;5076426;28;20407;-79
2022/11/27 12:57:34;;;;;;;2.17;1.33;;;;;;;7.35;87.03;99592.75;5073612;28;20044;-79
2022/11/27 13:00:05;;;;;;;4.75;1.65;;;;;;;7.33;83.54;99575.81;5087220;28;20079;-79
2022/11/27 13:02:37;;;;;;;1.85;1.17;;;;;;;7.33;82.92;99573.13;5078566;28;20483;-79
2022/11/27 13:05:09;;;;;;;1.85;1.20;;;;;;;7.35;84.87;99582.78;5082095;28;20049;-79
2022/11/27 13:07:43;;;;;;;3.90;1.40;;;;;;;7.24;83.08;99573.03;5076728;28;20055;-78
2022/11/27 13:10:22;;;;;;;2.45;1.40;;;;;;;7.26;80.52;99552.09;5076559;28;20044;-79
2022/11/27 13:12:57;;;;;;;2.35;1.40;;;;;;;7.40;81.35;99583.16;5079449;28;20048;-79
2022/11/27 13:15:27;;;;;;;2.22;1.23;;;;;;;7.37;78.75;99575.34;5086318;28;20476;-79
2022/11/27 13:18:02;;;;;;;7.80;1.33;;;;;;;7.21;80.85;99553.56;5068704;28;20174;-79
2022/11/27 13:20:35;;;;;;;2.95;1.00;;;;;;;7.25;78.60;99550.38;5077940;28;20084;-79
2022/11/27 13:23:02;;;;;;;2.97;1.00;;;;;;;7.26;79.28;99564.78;5086025;28;20434;-79
2022/11/27 13:25:34;;;;;;;4.30;1.38;;;;;;;7.39;79.81;99558.97;5074504;28;20503;-79
2022/11/27 13:28:04;;;;;;;2.50;1.00;;;;;;;7.25;79.49;99547.69;5071744;28;20127;-79
2022/11/27 13:30:35;;;;;;;2.75;1.10;;;;;;;7.19;80.13;99531.25;5084227;28;20399;-79
2022/11/27 13:33:11;;;;;;;1.95;1.15;;;;;;;7.29;80.31;99555.47;5079976;28;20080;-79
2022/11/27 13:35:43;;;;;;;2.70;1.35;;;;;;;7.11;77.51;99532.00;5078824;28;20063;-81
2022/11/27 13:38:12;;;;;;;2.58;1.15;;;;;;;7.15;75.94;99535.25;5077896;28;20044;-80
2022/11/27 13:40:41;;;;;;;1.15;0.90;;;;;;;7.15;76.88;99532.53;5070681;28;20128;-79
2022/11/27 13:43:22;;;;;;;3.22;1.20;;;;;;;7.27;75.53;99542.13;5073072;28;20059;-79
2022/11/27 13:45:50;;;;;;;1.17;0.77;;;;;;;7.30;76.55;99538.25;5078847;28;20052;-79
2022/11/27 13:48:32;;;;;;;2.15;1.10;;;;;;;7.30;76.63;99546.38;5071431;28;20056;-79
2022/11/27 13:51:00;;;;;;;7.22;1.40;;;;;;;7.12;75.56;99532.84;5073475;28;20044;-79
2022/11/27 13:53:35;;;;;;;3.80;0.90;;;;;;;7.02;75.61;99522.13;5072665;28;20218;-79
2022/11/27 13:56:01;;;;;;;1.90;1.20;;;;;;;7.18;73.69;99548.47;5085876;28;20428;-79
2022/11/27 13:58:30;;;;;;;2.33;1.05;;;;;;;6.94;76.71;99516.63;5085638;28;20098;-80
2022/11/27 14:00:58;;;;;;;1.42;1.00;;;;;;;6.91;76.20;99509.69;5087295;28;20044;-79
2022/11/27 14:03:26;;;;;;;1.20;1.08;;;;;;;7.00;76.25;99524.09;5073813;28;20052;-79
2022/11/27 14:05:53;;;;;;;1.23;1.10;;;;;;;7.07;75.63;99536.00;5078368;28;20495;-79
2022/11/27 14:08:24;;;;;;;1.75;1.00;;;;;;;6.96;76.15;99515.47;5068951;28;20483;-79
2022/11/27 14:10:54;;;;;;;1.13;0.95;;;;;;;6.97;75.70;99517.19;5072738;28;20040;-79
2022/11/27 14:13:22;;;;;;;3.92;1.40;;;;;;;6.96;75.57;99522.75;5084347;28;20479;-79
2022/11/27 14:16:00;;;;;;;1.83;1.10;;;;;;;6.91;75.59;99518.63;5081590;28;20082;-79
2022/11/27 14:18:28;;;;;;;1.52;0.93;;;;;;;6.96;77.28;99525.44;5076986;28;20048;-79
2022/11/27 14:21:00;;;;;;;2.40;1.00;;;;;;;6.94;76.22;99525.59;5083560;28;20271;-79
2022/11/27 14:23:30;;;;;;;1.05;0.80;;;;;;;6.87;77.88;99513.69;5068080;28;20055;-79
2022/11/27 14:26:05;;;;;;;2.67;1.50;;;;;;;6.98;75.77;99509.91;5069729;28;20048;-79
2022/11/27 14:28:35;;;;;;;1.63;1.08;;;;;;;7.02;76.72;99512.16;5086287;28;20556;-79
2022/11/27 14:31:02;;;;;;;1.35;1.00;;;;;;;7.08;75.75;99508.00;5085567;28;20044;-79
2022/11/27 14:33:32;;;;;;;1.98;0.98;;;;;;;6.96;73.56;99493.00;5067712;28;20052;-79
2022/11/27 14:36:00;;;;;;;;;;;;;;;6.89;74.91;99501.72;5081400;28;20487;-79
2022/11/27 14:38:30;;;;;;;2.45;0.70;;;;;;;6.79;74.22;99465.81;5069329;28;19920;-79
2022/11/27 14:41:07;;;;;;;;;;;;;;;6.85;73.25;99484.13;5075994;28;20329;-79
2022/11/27 14:43:33;;;;;;;3.83;1.13;;;;;;;6.77;72.93;99473.19;5067968;28;19942;-79
2022/11/27 14:46:01;;;;;;;1.15;1.02;;;;;;;6.64;73.96;99459.22;5076737;28;20105;-79
2022/11/27 14:48:32;;;;;;;5.30;1.23;;;;;;;6.56;73.90;99441.06;5076115;28;20053;-79
2022/11/27 14:50:59;;;;;;;3.67;1.10;;;;;;;6.62;74.31;99459.38;5077047;28;20055;-79
2022/11/27 14:53:30;;;;;;;4.10;1.58;;;;;;;6.43;73.49;99432.47;5075986;28;20062;-79
2022/11/27 14:55:58;;;;;;;3.50;1.98;;;;;;;6.51;73.32;99451.50;5076795;28;20070;-79
2022/11/27 14:58:27;;;;;;;1.70;1.15;;;;;;;6.40;74.13;99424.69;5070174;28;20045;-79
2022/11/27 15:00:58;;;;;;;1.55;1.02;;;;;;;6.51;74.21;99436.13;5077018;28;20139;-79
2022/11/27 15:03:29;;;;;;;1.27;1.13;;;;;;;6.31;74.74;99418.34;5068690;28;20051;-79
2022/11/27 15:05:58;;;;;;;3.00;1.35;;;;;;;6.23;75.30;99399.34;5069852;28;20044;-79
2022/11/27 15:08:26;;;;;;;2.33;1.23;;;;;;;6.15;75.03;99400.09;5077656;28;20048;-79
2022/11/27 15:10:56;;;;;;;2.90;1.02;;;;;;;6.16;76.78;99412.63;5076472;28;20052;-78
2022/11/27 15:13:26;;;;;;;1.27;0.93;;;;;;;5.98;76.03;99383.72;5074669;28;20044;-78
2022/11/27 15:15:57;;;;;;;1.92;1.23;;;;;;;6.06;76.39;99406.41;5084386;28;20173;-79
2022/11/27 15:18:25;;;;;;;1.75;1.10;;;;;;;5.92;78.44;99380.75;5073904;28;20536;-79
2022/11/27 15:20:52;;;;;;;2.22;1.30;;;;;;;6.06;78.78;99414.50;5077577;28;20124;-79
2022/11/27 15:23:23;;;;;;;2.20;1.42;;;;;;;5.92;78.46;99396.94;5067848;28;20124;-79
2022/11/27 15:25:52;;;;;;;4.53;1.38;;;;;;;5.90;77.85;99402.47;5084924;28;20581;-78
2022/11/27 15:28:34;;;;;;;2.63;1.38;;;;;;;5.81;80.36;99406.06;5076144;28;20046;-78
2022/11/27 15:31:01;;;;;;;3.67;1.42;;;;;;;5.73;81.04;99408.66;5082479;28;20044;-80
2022/11/27 15:33:29;;;;;;;3.20;1.17;;;;;;;5.57;81.96;99391.25;5085665;28;20058;-78
2022/11/27 15:36:15;;;;;;;2.33;1.63;;;;;;;5.55;81.68;99395.94;5081731;28;20049;-78
2022/11/27 15:38:44;;;;;;;3.63;1.58;;;;;;;5.68;81.42;99411.78;5080708;28;20517;-80
2022/11/27 15:41:22;;;;;;;3.40;1.60;;;;;;;5.63;83.20;99406.84;5086384;28;20037;-79
2022/11/27 15:43:51;;;;;;;3.92;1.55;;;;;;;5.56;83.90;99397.63;5071883;28;20048;-79
2022/11/27 15:46:25;;;;;;;2.08;1.50;;;;;;;5.52;82.92;99400.78;5078326;28;20048;-78
2022/11/27 15:48:53;;;;;;;2.38;1.50;;;;;;;5.28;84.33;99369.75;5085832;28;20052;-78
2022/11/27 15:51:19;;;;;;;2.20;1.70;;;;;;;5.37;84.90;99395.84;5073669;28;20079;-79
2022/11/27 15:53:47;;;;;;;2.20;1.40;;;;;;;5.21;85.84;99379.41;5086455;28;20048;-80
2022/11/27 15:56:14;;;;;;;3.08;1.65;;;;;;;5.26;85.60;99399.56;5071575;28;20169;-79
2022/11/27 15:58:41;;;;;;;3.80;2.28;;;;;;;5.24;86.15;99395.28;5088434;28;20043;-79
2022/11/27 16:01:10;;;;;;;4.28;1.98;;;;;;;5.16;85.81;99382.53;5077248;28;20058;-79
2022/11/27 16:03:38;;;;;;;3.15;1.58;;;;;;;5.07;86.19;99373.50;5089359;28;20556;-79
2022/11/27 16:06:06;;;;;;;2.58;1.55;;;;;;;5.03;88.40;99372.09;5074270;28;20415;-79
2022/11/27 16:08:33;;;;;;;3.15;1.45;;;;;;;5.09;90.12;99389.53;5084377;28;20384;-79
2022/11/27 16:11:01;;;;;;;5.00;2.08;;;;;;;5.03;90.40;99392.78;5086085;28;20058;-79
2022/11/27 16:13:28;;;;;;;5.07;1.95;;;;;;;4.85;90.74;99369.28;5090068;28;20051;-76
2022/11/27 16:15:55;;;;;;;5.78;2.08;;;;;;;4.87;88.74;99369.97;5079194;28;20052;-76
2022/11/27 16:18:23;;;;;;;3.03;1.70;;;;;;;4.84;88.59;99367.56;5071231;28;20044;-79
2022/11/27 16:20:50;;;;;;;8.02;1.75;;;;;;;4.90;90.08;99383.16;5080160;28;20060;-79
2022/11/27 16:23:16;;;;;;;5.82;1.95;;;;;;;4.86;89.23;99375.50;5075967;28;20263;-79
2022/11/27 16:25:43;;;;;;;2.90;1.67;;;;;;;4.84;85.10;99383.72;5076140;28;20506;-79
2022/11/27 16:28:10;;;;;;;2.67;1.73;;;;;;;4.99;84.42;99402.16;5073768;28;20124;-79
2022/11/27 16:30:36;;;;;;;4.05;1.95;;;;;;;4.89;83.45;99380.59;5079371;28;20584;-79
2022/11/27 16:33:03;;;;;;;2.83;1.90;;;;;;;4.91;83.11;99394.81;5078768;28;20056;-79
2022/11/27 16:35:31;;;;;;;3.72;2.25;;;;;;;5.06;80.77;99390.66;5070851;28;20410;-79
2022/11/27 16:37:58;;;;;;;2.83;2.00;;;;;;;5.04;81.59;99383.72;5075914;28;20124;-79
2022/11/27 16:40:24;;;;;;;4.32;2.50;;;;;;;5.03;81.22;99395.47;5081430;28;20049;-79
2022/11/27 16:42:51;;;;;;;3.88;2.15;;;;;;;4.86;81.34;99365.56;5086352;28;20052;-79
2022/11/27 16:45:18;;;;;;;5.60;2.55;;;;;;;4.86;83.33;99365.56;5085187;28;20048;-79
2022/11/27 16:47:44;;;;;;;6.43;2.70;;;;;;;4.85;83.20;99374.66;5091156;28;20044;-79
2022/11/27 16:50:11;;;;;;;3.83;2.33;;;;;;;4.94;82.96;99378.34;5091221;28;20051;-79
2022/11/27 16:52:39;;;;;;;4.18;2.72;;;;;;;4.84;83.46;99380.19;5076669;28;20060;-79
2022/11/27 16:55:06;;;;;;;2.80;2.15;;;;;;;4.69;83.46;99355.53;5079729;28;20136;-79
2022/11/27 16:57:33;;;;;;;3.70;2.25;;;;;;;4.70;83.64;99351.84;5072951;28;20117;-79
2022/11/27 16:59:59;;;;;;;3.08;1.90;;;;;;;4.82;84.13;99366.88;5070995;28;20139;-79
2022/11/27 17:02:27;;;;;;;4.25;2.63;;;;;;;4.66;84.21;99331.59;5076954;28;20125;-79
2022/11/27 17:04:54;;;;;;;3.88;2.38;;;;;;;4.74;83.20;99356.81;5076493;28;20501;-79
2022/11/27 17:07:21;;;;;;;4.18;1.88;;;;;;;4.72;84.74;99348.00;5071889;28;20109;-79
2022/11/27 17:09:49;;;;;;;6.00;2.60;;;;;;;4.56;83.52;99324.38;5076871;28;20133;-76
2022/11/27 17:12:18;;;;;;;4.10;2.60;;;;;;;4.61;84.37;99319.38;5073130;28;20048;-77
2022/11/27 17:14:45;;;;;;;3.92;2.60;;;;;;;4.57;86.19;99303.66;5089960;28;20052;-76
2022/11/27 17:17:12;;;;;;;5.15;2.25;;;;;;;4.54;84.78;99312.03;5080786;28;20421;-79
2022/11/27 17:19:42;;;;;;;5.22;2.38;;;;;;;4.73;83.42;99325.47;5080371;28;20064;-77
2022/11/27 17:22:09;;;;;;;5.88;2.90;;;;;;;4.70;84.17;99317.69;5080802;28;20048;-79
2022/11/27 17:24:35;;;;;;;4.72;3.17;;;;;;;4.54;83.79;99293.19;5071910;28;20056;-77
2022/11/27 17:27:03;;;;;;;3.42;2.38;;;;;;;4.70;83.47;99316.84;5084489;28;20132;-77
2022/11/27 17:29:30;;;;;;;4.05;2.67;;;;;;;4.58;83.74;99289.22;5072262;28;20479;-76
2022/11/27 17:31:56;;;;;;;4.07;2.78;;;;;;;4.54;83.53;99285.94;5087344;28;20037;-77
2022/11/27 17:34:23;;;;;;;4.60;2.55;;;;;;;4.67;83.98;99307.19;5087449;28;20483;-77
2022/11/27 17:36:52;;;;;;;5.55;3.35;;;;;;;4.55;83.93;99281.44;5074926;28;20158;-78
2022/11/27 17:39:19;;;;;;;5.43;4.18;;;;;;;4.62;82.91;99314.84;5092966;28;20046;-77
2022/11/27 17:41:46;;;;;;;7.80;5.35;;;;;;;4.48;82.34;99293.75;5071500;28;20056;-77
2022/11/27 17:44:14;;;;;;;4.38;3.38;;;;;;;4.61;83.51;99314.00;5069039;28;20048;-78
2022/11/27 17:46:43;;;;;;;5.53;3.33;;;;;;;4.59;83.93;99315.13;5073460;28;20071;-78
2022/11/27 17:49:10;;;;;;;7.18;3.03;;;;;;;4.47;84.35;99300.13;5084978;28;20079;-78
2022/11/27 17:51:37;;;;;;;6.63;3.72;;;;;;;4.48;85.21;99302.66;5081675;28;20494;-77
2022/11/27 17:54:04;;;;;;;5.95;3.30;;;;;;;4.31;86.68;99284.56;5082534;28;20488;-78
2022/11/27 17:56:32;;;;;;;9.25;3.80;;;;;;;4.42;88.46;99311.31;5086903;28;20418;-78
2022/11/27 17:58:59;;;;;;;6.70;3.92;;;;;;;4.33;88.61;99318.41;5070119;28;20444;-78
2022/11/27 18:01:28;;;;;;;5.72;4.00;;;;;;;4.31;88.46;99288.09;5073316;28;20055;-78
2022/11/27 18:03:58;;;;;;;7.05;4.00;;;;;;;4.24;89.32;99286.94;5083280;28;20131;-78
2022/11/27 18:06:25;;;;;;;6.90;3.97;;;;;;;4.37;87.79;99292.91;5080808;28;20090;-78
2022/11/27 18:08:53;;;;;;;7.72;3.83;;;;;;;4.24;87.68;99258.19;5078600;28;20047;-78
2022/11/27 18:11:21;;;;;;;6.93;3.85;;;;;;;4.22;89.89;99278.19;5092083;28;20044;-78
2022/11/27 18:13:49;;;;;;;8.05;3.88;;;;;;;4.05;90.15;99258.19;5080469;28;20479;-79
2022/11/27 18:16:17;;;;;;;5.28;3.38;;;;;;;4.24;89.83;99279.72;5084107;28;20058;-78
2022/11/27 18:18:45;;;;;;;8.38;4.10;;;;;;;4.05;89.71;99255.50;5086365;28;20062;-78
2022/11/27 18:21:14;;;;;;;7.38;4.05;;;;;;;4.15;90.67;99267.13;5084818;28;20422;-79
2022/11/27 18:23:42;;;;;;;7.95;3.95;;;;;;;3.98;90.84;99259.75;5080885;28;20050;-79
2022/11/27 18:26:10;;;;;;;7.78;4.60;;;;;;;3.95;91.60;99254.66;5088904;28;20067;-78
2022/11/27 18:28:37;;;;;;;6.13;3.88;;;;;;;3.98;92.52;99257.91;5083518;28;20048;-77
2022/11/27 18:31:05;;;;;;;7.72;4.10;;;;;;;4.10;91.88;99255.94;5073804;28;20479;-78
2022/11/27 18:33:32;;;;;;;8.13;5.32;;;;;;;4.01;91.46;99228.03;5076359;28;20051;-78
2022/11/27 18:36:00;;;;;;;10.93;4.88;;;;;;;4.02;91.18;99235.13;5077922;28;20044;-78
2022/11/27 18:38:26;;;;;;;8.10;4.32;;;;;;;4.10;91.52;99252.41;5087674;28;20155;-80
2022/11/27 18:40:53;;;;;;;8.88;4.72;;;;;;;3.94;92.73;99242.19;5073172;28;20044;-79
2022/11/27 18:43:19;;;;;;;9.00;4.00;;;;;;;3.98;93.37;99262.44;5085821;28;20052;-79
2022/11/27 18:45:46;;;;;;;13.00;6.00;;;;;;;3.80;94.46;99233.53;5070547;28;20053;-78
2022/11/27 18:51:04;;;;;;;7.38;4.35;;;;;;;3.96;95.42;99256.34;5068827;28;20052;-78
2022/11/27 18:53:32;;;;;;;7.13;4.28;;;;;;;3.79;95.63;99236.38;5076679;28;20052;-78
2022/11/27 18:56:04;;;;;;;7.80;4.28;;;;;;;3.95;96.53;99238.53;5090878;28;20053;-79
2022/11/27 18:58:33;;;;;;;7.20;4.22;;;;;;;3.83;96.34;99227.03;5071064;28;20776;-78
2022/11/27 19:01:01;;;;;;;9.30;4.32;;;;;;;3.94;96.68;99237.66;5075216;28;20048;-78